Terminal Aerodrome Forecast
Issued by NWS Sterling, VA

Current Version | Previous Version | Graphics & Text | Print | Product List | Glossary On
Versions: 1 2 3 4 5 6 7 8 9 10 11 12 13 14 15
504
FTUS41 KLWX 162341
TAFMRB
TAF
KMRB 162341Z 1700/1724 28011G19KT P6SM BKN035
     FM171400 27013G25KT P6SM BKN050=

USA.gov is the U.S. government's official web portal to all federal, state and local government web resources and services.